Terminal Aerodrome Forecast
Issued by NWS Tuscon, AZ

Home | Current Version | Previous Version | Text Only | Print | Product List | Glossary On
Versions: 1 2 3 4 5 6 7 8 9 10 11 12 13 14 15
235
FTUS45 KTWC 271120
TAFTUS
TAF
KTUS 271120Z 2712/2812 15006KT P6SM SCT250
     FM272000 27013G23KT P6SM FEW120 SCT200
     FM280300 25009KT P6SM SCT080
     FM281000 21005KT P6SM SCT080=

USA.gov is the U.S. government's official web portal to all federal, state and local government web resources and services.